Private Wetterstation Sandau
Wetterdaten: Sonntag, 12.02.2012
Datum Zeit Temp. A. Feuchte A. Luftdruck Regen Wind Richtung Richtung Taupunkt Windchill
12.02.2012 00:02 -11,1 C 78 % 1036,1 hPa 0,0 l/m 0,0 km/h (0 Bft) O-SO 112 -14,2 C -11,1 C
12.02.2012 00:07 -11,2 C 78 % 1036,2 hPa 0,0 l/m 0,0 km/h (0 Bft) O-SO 112 -14,3 C -11,2 C
12.02.2012 00:12 -11,2 C 78 % 1036,0 hPa 0,0 l/m 0,0 km/h (0 Bft) O-SO 112 -14,3 C -11,2 C
12.02.2012 00:17 -11,2 C 78 % 1036,1 hPa 0,0 l/m 0,0 km/h (0 Bft) O-SO 112 -14,3 C -11,2 C
12.02.2012 00:22 -11,4 C 78 % 1036,2 hPa 0,0 l/m 0,0 km/h (0 Bft) O-SO 112 -14,4 C -11,4 C
12.02.2012 00:27 -11,4 C 78 % 1036,1 hPa 0,0 l/m 0,0 km/h (0 Bft) O-SO 112 -14,4 C -11,4 C
12.02.2012 00:32 -11,5 C 78 % 1036,1 hPa 0,0 l/m 0,0 km/h (0 Bft) O-SO 112 -14,5 C -11,5 C
12.02.2012 00:37 -11,6 C 78 % 1035,9 hPa 0,0 l/m 0,0 km/h (0 Bft) O-SO 112 -14,6 C -11,6 C
12.02.2012 00:42 -11,6 C 78 % 1035,8 hPa 0,0 l/m 0,0 km/h (0 Bft) O-SO 112 -14,6 C -11,6 C
12.02.2012 00:47 -11,6 C 78 % 1035,8 hPa 0,0 l/m 0,0 km/h (0 Bft) O-SO 112 -14,6 C -11,6 C
12.02.2012 00:52 -11,6 C 79 % 1035,8 hPa 0,0 l/m 0,0 km/h (0 Bft) O-SO 112 -14,5 C -11,6 C
12.02.2012 00:57 -11,6 C 79 % 1035,8 hPa 0,0 l/m 0,0 km/h (0 Bft) O-SO 112 -14,5 C -11,6 C
12.02.2012 01:02 -11,7 C 79 % 1035,8 hPa 0,0 l/m 0,0 km/h (0 Bft) O-SO 112 -14,6 C -11,7 C
12.02.2012 01:07 -11,7 C 79 % 1035,4 hPa 0,0 l/m 0,0 km/h (0 Bft) O-SO 112 -14,6 C -11,7 C
12.02.2012 01:12 -11,6 C 79 % 1035,4 hPa 0,0 l/m 2,5 km/h (1 Bft) O-SO 112 -14,5 C -11,6 C
12.02.2012 01:17 -11,7 C 79 % 1035,4 hPa 0,0 l/m 0,0 km/h (0 Bft) O-SO 112 -14,6 C -11,7 C
12.02.2012 01:22 -11,8 C 79 % 1035,4 hPa 0,0 l/m 0,0 km/h (0 Bft) O-SO 112 -14,7 C -11,8 C
12.02.2012 01:27 -11,8 C 79 % 1035,4 hPa 0,0 l/m 0,0 km/h (0 Bft) O-SO 112 -14,7 C -11,8 C
12.02.2012 01:32 -11,8 C 79 % 1035,4 hPa 0,0 l/m 0,0 km/h (0 Bft) O-SO 112 -14,7 C -11,8 C
12.02.2012 01:37 -11,7 C 79 % 1035,4 hPa 0,0 l/m 0,0 km/h (0 Bft) O-SO 112 -14,6 C -11,7 C
12.02.2012 01:42 -11,7 C 80 % 1035,4 hPa 0,0 l/m 0,0 km/h (0 Bft) O-SO 112 -14,4 C -11,7 C
12.02.2012 01:47 -11,6 C 80 % 1035,3 hPa 0,0 l/m 0,0 km/h (0 Bft) O-SO 112 -14,3 C -11,6 C
12.02.2012 01:52 -11,5 C 80 % 1035,4 hPa 0,0 l/m 0,0 km/h (0 Bft) O-SO 112 -14,2 C -11,5 C
12.02.2012 01:57 -11,5 C 80 % 1035,5 hPa 0,0 l/m 0,0 km/h (0 Bft) O-SO 112 -14,2 C -11,5 C
12.02.2012 02:02 -11,5 C 80 % 1035,3 hPa 0,0 l/m 1,1 km/h (1 Bft) O-SO 112 -14,2 C -11,5 C
12.02.2012 02:07 -11,5 C 80 % 1035,3 hPa 0,0 l/m 0,0 km/h (0 Bft) O-SO 112 -14,2 C -11,5 C
12.02.2012 02:12 -11,5 C 80 % 1035,3 hPa 0,0 l/m 0,0 km/h (0 Bft) O-SO 112 -14,2 C -11,5 C
12.02.2012 02:17 -11,5 C 79 % 1035,2 hPa 0,0 l/m 0,0 km/h (0 Bft) O-SO 112 -14,4 C -11,5 C
12.02.2012 02:22 -11,4 C 80 % 1035,1 hPa 0,0 l/m 0,0 km/h (0 Bft) O-SO 112 -14,1 C -11,4 C
12.02.2012 02:27 -11,2 C 79 % 1035,1 hPa 0,0 l/m 0,0 km/h (0 Bft) O-SO 112 -14,1 C -11,2 C
12.02.2012 02:32 -11,4 C 79 % 1035,1 hPa 0,0 l/m 0,0 km/h (0 Bft) O-SO 112 -14,3 C -11,4 C
12.02.2012 02:37 -11,6 C 79 % 1035,1 hPa 0,0 l/m 0,0 km/h (0 Bft) O-SO 112 -14,5 C -11,6 C
12.02.2012 02:42 -11,8 C 79 % 1035,1 hPa 0,0 l/m 0,0 km/h (0 Bft) O-SO 112 -14,7 C -11,8 C
12.02.2012 02:47 -11,8 C 79 % 1035,0 hPa 0,0 l/m 0,0 km/h (0 Bft) O-SO 112 -14,7 C -11,8 C
12.02.2012 02:52 -11,6 C 79 % 1034,9 hPa 0,0 l/m 0,0 km/h (0 Bft) O-SO 112 -14,5 C -11,6 C
12.02.2012 02:57 -11,3 C 80 % 1034,9 hPa 0,0 l/m 0,0 km/h (0 Bft) O-SO 112 -14,0 C -11,3 C
12.02.2012 03:02 -11,1 C 80 % 1034,8 hPa 0,0 l/m 0,0 km/h (0 Bft) O-SO 112 -13,8 C -11,1 C
12.02.2012 03:07 -11,0 C 80 % 1034,7 hPa 0,0 l/m 1,4 km/h (1 Bft) O-SO 112 -13,8 C -11,0 C
12.02.2012 03:12 -10,8 C 80 % 1034,7 hPa 0,0 l/m 0,0 km/h (0 Bft) O-SO 112 -13,6 C -10,8 C
12.02.2012 03:17 -10,7 C 80 % 1034,4 hPa 0,0 l/m 0,0 km/h (0 Bft) O-SO 112 -13,5 C -10,7 C
12.02.2012 03:22 -10,7 C 80 % 1034,5 hPa 0,0 l/m 3,6 km/h (1 Bft) O-SO 112 -13,5 C -10,7 C
12.02.2012 03:27 -10,8 C 80 % 1034,6 hPa 0,0 l/m 0,0 km/h (0 Bft) O-SO 112 -13,6 C -10,8 C
12.02.2012 03:32 -10,8 C 80 % 1034,4 hPa 0,0 l/m 0,0 km/h (0 Bft) O-SO 112 -13,6 C -10,8 C
12.02.2012 03:37 -10,8 C 80 % 1034,4 hPa 0,0 l/m 0,0 km/h (0 Bft) O-SO 112 -13,6 C -10,8 C
12.02.2012 03:42 -10,7 C 80 % 1034,4 hPa 0,0 l/m 0,0 km/h (0 Bft) O-SO 112 -13,5 C -10,7 C
12.02.2012 03:47 -10,7 C 80 % 1034,3 hPa 0,0 l/m 0,0 km/h (0 Bft) O-SO 112 -13,5 C -10,7 C
12.02.2012 03:52 -10,7 C 80 % 1034,3 hPa 0,0 l/m 0,0 km/h (0 Bft) O-SO 112 -13,5 C -10,7 C
12.02.2012 03:57 -10,6 C 80 % 1034,2 hPa 0,0 l/m 0,0 km/h (0 Bft) O-SO 112 -13,4 C -10,6 C
12.02.2012 04:02 -10,5 C 80 % 1034,2 hPa 0,0 l/m 0,0 km/h (0 Bft) O-SO 112 -13,3 C -10,5 C
12.02.2012 04:07 -10,4 C 80 % 1034,2 hPa 0,0 l/m 0,0 km/h (0 Bft) O-SO 112 -13,2 C -10,4 C
12.02.2012 04:12 -10,4 C 80 % 1034,1 hPa 0,0 l/m 0,0 km/h (0 Bft) O-SO 112 -13,2 C -10,4 C
12.02.2012 04:17 -10,3 C 80 % 1034,1 hPa 0,0 l/m 0,0 km/h (0 Bft) O-SO 112 -13,1 C -10,3 C
12.02.2012 04:22 -10,2 C 80 % 1034,1 hPa 0,0 l/m 0,0 km/h (0 Bft) O-SO 112 -13,0 C -10,2 C
12.02.2012 04:27 -10,2 C 80 % 1034,0 hPa 0,0 l/m 0,0 km/h (0 Bft) O-SO 112 -13,0 C -10,2 C
12.02.2012 04:32 -10,2 C 80 % 1034,0 hPa 0,0 l/m 0,0 km/h (0 Bft) O-SO 112 -13,0 C -10,2 C
12.02.2012 04:37 -10,2 C 80 % 1034,0 hPa 0,0 l/m 0,0 km/h (0 Bft) O-SO 112 -13,0 C -10,2 C
12.02.2012 04:42 -10,2 C 80 % 1034,1 hPa 0,0 l/m 0,0 km/h (0 Bft) O-SO 112 -13,0 C -10,2 C
12.02.2012 04:47 -10,4 C 80 % 1034,1 hPa 0,0 l/m 0,0 km/h (0 Bft) O-SO 112 -13,2 C -10,4 C
12.02.2012 04:52 -10,4 C 80 % 1034,1 hPa 0,0 l/m 0,0 km/h (0 Bft) O-SO 112 -13,2 C -10,4 C
12.02.2012 04:57 -10,2 C 80 % 1034,1 hPa 0,0 l/m 0,0 km/h (0 Bft) O-SO 112 -13,0 C -10,2 C
12.02.2012 05:02 -10,2 C 80 % 1034,0 hPa 0,0 l/m 0,0 km/h (0 Bft) O-SO 112 -13,0 C -10,2 C
12.02.2012 05:07 -10,1 C 80 % 1033,8 hPa 0,0 l/m 1,4 km/h (1 Bft) O-SO 112 -12,9 C -10,1 C
12.02.2012 05:12 -10,1 C 79 % 1033,8 hPa 0,0 l/m 0,0 km/h (0 Bft) O-SO 112 -13,0 C -10,1 C
12.02.2012 05:17 -10,1 C 79 % 1033,8 hPa 0,0 l/m 0,0 km/h (0 Bft) O-SO 112 -13,0 C -10,1 C
12.02.2012 05:22 -10,2 C 79 % 1033,8 hPa 0,0 l/m 1,4 km/h (1 Bft) O-SO 112 -13,1 C -10,2 C
12.02.2012 05:27 -10,2 C 79 % 1033,5 hPa 0,0 l/m 2,2 km/h (1 Bft) O-SO 112 -13,1 C -10,2 C
12.02.2012 05:32 -10,2 C 79 % 1033,4 hPa 0,0 l/m 0,0 km/h (0 Bft) O-SO 112 -13,1 C -10,2 C
12.02.2012 05:37 -10,2 C 79 % 1033,3 hPa 0,0 l/m 3,6 km/h (1 Bft) O-SO 112 -13,1 C -10,2 C
12.02.2012 05:42 -10,2 C 79 % 1033,2 hPa 0,0 l/m 0,0 km/h (0 Bft) O-SO 112 -13,1 C -10,2 C
12.02.2012 05:47 -10,2 C 79 % 1033,3 hPa 0,0 l/m 3,2 km/h (1 Bft) O-SO 112 -13,1 C -10,2 C
12.02.2012 05:52 -10,2 C 79 % 1033,3 hPa 0,0 l/m 0,0 km/h (0 Bft) O-SO 112 -13,1 C -10,2 C
12.02.2012 05:57 -10,2 C 79 % 1033,3 hPa 0,0 l/m 0,0 km/h (0 Bft) O-SO 112 -13,1 C -10,2 C
12.02.2012 06:02 -10,2 C 79 % 1033,2 hPa 0,0 l/m 0,0 km/h (0 Bft) O-SO 112 -13,1 C -10,2 C
12.02.2012 06:07 -10,2 C 79 % 1033,2 hPa 0,0 l/m 1,4 km/h (1 Bft) O-SO 112 -13,1 C -10,2 C
12.02.2012 06:12 -10,2 C 79 % 1033,1 hPa 0,0 l/m 2,2 km/h (1 Bft) O-SO 112 -13,1 C -10,2 C
12.02.2012 06:17 -10,2 C 79 % 1033,1 hPa 0,0 l/m 0,0 km/h (0 Bft) O-SO 112 -13,1 C -10,2 C
12.02.2012 06:22 -10,2 C 79 % 1033,1 hPa 0,0 l/m 0,0 km/h (0 Bft) O-SO 112 -13,1 C -10,2 C
12.02.2012 06:27 -10,2 C 79 % 1033,0 hPa 0,0 l/m 1,4 km/h (1 Bft) O-SO 112 -13,1 C -10,2 C
12.02.2012 06:32 -10,4 C 79 % 1033,1 hPa 0,0 l/m 1,8 km/h (1 Bft) O-SO 112 -13,3 C -10,4 C
12.02.2012 06:37 -10,4 C 79 % 1033,1 hPa 0,0 l/m 0,0 km/h (0 Bft) O-SO 112 -13,3 C -10,4 C
12.02.2012 06:42 -10,5 C 79 % 1033,1 hPa 0,0 l/m 0,0 km/h (0 Bft) O-SO 112 -13,4 C -10,5 C
12.02.2012 06:47 -10,6 C 79 % 1033,1 hPa 0,0 l/m 0,0 km/h (0 Bft) O-SO 112 -13,5 C -10,6 C
12.02.2012 06:52 -10,7 C 79 % 1033,1 hPa 0,0 l/m 0,0 km/h (0 Bft) O-SO 112 -13,6 C -10,7 C
12.02.2012 06:57 -10,7 C 79 % 1033,1 hPa 0,0 l/m 1,4 km/h (1 Bft) O-SO 112 -13,6 C -10,7 C
12.02.2012 07:02 -10,6 C 79 % 1033,1 hPa 0,0 l/m 0,0 km/h (0 Bft) O-SO 112 -13,5 C -10,6 C
12.02.2012 07:07 -10,6 C 79 % 1033,1 hPa 0,0 l/m 0,0 km/h (0 Bft) O-SO 112 -13,5 C -10,6 C
12.02.2012 07:12 -10,5 C 80 % 1033,2 hPa 0,0 l/m 0,0 km/h (0 Bft) O-SO 112 -13,3 C -10,5 C
12.02.2012 07:17 -10,5 C 80 % 1033,3 hPa 0,0 l/m 1,1 km/h (1 Bft) O-SO 112 -13,3 C -10,5 C
12.02.2012 07:22 -10,4 C 80 % 1033,2 hPa 0,0 l/m 1,1 km/h (1 Bft) O-SO 112 -13,2 C -10,4 C
12.02.2012 07:27 -10,4 C 80 % 1033,1 hPa 0,0 l/m 1,1 km/h (1 Bft) O-SO 112 -13,2 C -10,4 C
12.02.2012 07:32 -10,2 C 80 % 1033,1 hPa 0,0 l/m 1,8 km/h (1 Bft) O-SO 112 -13,0 C -10,2 C
12.02.2012 07:37 -10,3 C 80 % 1033,1 hPa 0,0 l/m 2,5 km/h (1 Bft) O-SO 112 -13,1 C -10,3 C
12.02.2012 07:42 -10,2 C 80 % 1033,1 hPa 0,0 l/m 2,2 km/h (1 Bft) S-SW 202 -13,0 C -10,2 C
12.02.2012 07:47 -10,2 C 80 % 1033,1 hPa 0,0 l/m 3,2 km/h (1 Bft) S 180 -13,0 C -10,2 C
12.02.2012 07:52 -10,2 C 80 % 1033,0 hPa 0,0 l/m 5,4 km/h (1 Bft) S 180 -13,0 C -13,4 C
12.02.2012 07:57 -10,2 C 80 % 1033,0 hPa 0,0 l/m 5,4 km/h (1 Bft) S 180 -13,0 C -13,4 C
12.02.2012 08:02 -10,2 C 81 % 1033,0 hPa 0,0 l/m 3,2 km/h (1 Bft) S 180 -12,8 C -10,2 C
12.02.2012 08:07 -10,1 C 81 % 1033,0 hPa 0,0 l/m 3,2 km/h (1 Bft) S 180 -12,7 C -10,1 C
12.02.2012 08:12 -10,1 C 81 % 1033,0 hPa 0,0 l/m 2,9 km/h (1 Bft) S 180 -12,7 C -10,1 C
12.02.2012 08:17 -10,0 C 81 % 1033,0 hPa 0,0 l/m 4,0 km/h (1 Bft) S-SW 202 -12,6 C -10,0 C
12.02.2012 08:22 -9,9 C 81 % 1032,9 hPa 0,0 l/m 5,0 km/h (1 Bft) W-SW 247 -12,5 C -12,8 C
12.02.2012 08:27 -9,8 C 81 % 1033,0 hPa 0,0 l/m 3,2 km/h (1 Bft) S-SW 202 -12,4 C -9,8 C
12.02.2012 08:32 -9,7 C 81 % 1032,9 hPa 0,0 l/m 4,7 km/h (1 Bft) S-SW 202 -12,3 C -12,4 C
12.02.2012 08:37 -9,6 C 81 % 1032,9 hPa 0,0 l/m 1,8 km/h (1 Bft) S 180 -12,2 C -9,6 C
12.02.2012 08:42 -9,6 C 81 % 1032,8 hPa 0,0 l/m 2,5 km/h (1 Bft) SW 225 -12,2 C -9,6 C
12.02.2012 08:47 -9,5 C 81 % 1032,7 hPa 0,0 l/m 3,2 km/h (1 Bft) S-SW 202 -12,1 C -9,5 C
12.02.2012 08:52 -9,4 C 81 % 1032,6 hPa 0,0 l/m 2,5 km/h (1 Bft) S-SO 157 -12,0 C -9,4 C
12.02.2012 08:57 -9,3 C 81 % 1032,5 hPa 0,0 l/m 5,4 km/h (1 Bft) S-SO 157 -11,9 C -12,4 C
12.02.2012 09:02 -9,1 C 81 % 1032,5 hPa 0,0 l/m 2,2 km/h (1 Bft) S 180 -11,7 C -9,1 C
12.02.2012 09:07 -8,9 C 82 % 1032,4 hPa 0,0 l/m 6,1 km/h (2 Bft) S-SO 157 -11,4 C -12,3 C
12.02.2012 09:12 -8,7 C 81 % 1032,3 hPa 0,0 l/m 11,2 km/h (2 Bft) S-SW 202 -11,4 C -14,1 C
12.02.2012 09:17 -8,5 C 81 % 1032,3 hPa 0,0 l/m 5,8 km/h (2 Bft) W-SW 247 -11,2 C -11,7 C
12.02.2012 09:22 -8,4 C 81 % 1032,4 hPa 0,0 l/m 4,7 km/h (1 Bft) S-SW 202 -11,1 C -10,9 C
12.02.2012 09:27 -8,4 C 81 % 1032,3 hPa 0,0 l/m 7,2 km/h (2 Bft) S 180 -11,1 C -12,3 C
12.02.2012 09:32 -8,2 C 81 % 1032,3 hPa 0,0 l/m 11,2 km/h (2 Bft) S-SW 202 -10,9 C -13,5 C
12.02.2012 09:37 -7,9 C 81 % 1032,5 hPa 0,0 l/m 9,0 km/h (2 Bft) SW 225 -10,6 C -12,4 C
12.02.2012 09:42 -7,8 C 80 % 1032,6 hPa 0,0 l/m 7,2 km/h (2 Bft) S 180 -10,6 C -11,6 C
12.02.2012 09:47 -7,6 C 80 % 1032,3 hPa 0,0 l/m 3,2 km/h (1 Bft) S-SW 202 -10,4 C -7,6 C
12.02.2012 09:52 -7,6 C 80 % 1032,3 hPa 0,0 l/m 4,0 km/h (1 Bft) S-SW 202 -10,4 C -7,6 C
12.02.2012 09:57 -7,6 C 80 % 1032,3 hPa 0,0 l/m 10,1 km/h (2 Bft) SW 225 -10,4 C -12,4 C
12.02.2012 10:02 -7,4 C 80 % 1032,4 hPa 0,0 l/m 9,0 km/h (2 Bft) S-SW 202 -10,2 C -11,8 C
12.02.2012 10:07 -7,3 C 80 % 1032,3 hPa 0,0 l/m 6,8 km/h (2 Bft) S-SW 202 -10,1 C -10,8 C
12.02.2012 10:12 -7,2 C 80 % 1032,3 hPa 0,0 l/m 12,2 km/h (2 Bft) S-SW 202 -10,0 C -12,6 C
12.02.2012 10:17 -7,1 C 80 % 1032,2 hPa 0,0 l/m 10,4 km/h (2 Bft) S-SW 202 -9,9 C -11,9 C
12.02.2012 10:22 -6,9 C 80 % 1032,2 hPa 0,0 l/m 6,1 km/h (2 Bft) SW 225 -9,8 C -10,0 C
12.02.2012 10:27 -6,7 C 79 % 1032,2 hPa 0,0 l/m 7,2 km/h (2 Bft) SO 135 -9,7 C -10,3 C
12.02.2012 10:32 -6,5 C 79 % 1032,1 hPa 0,0 l/m 7,2 km/h (2 Bft) S-SW 202 -9,5 C -10,0 C
12.02.2012 10:37 -6,4 C 79 % 1032,0 hPa 0,0 l/m 10,8 km/h (2 Bft) S-SW 202 -9,4 C -11,2 C
12.02.2012 10:42 -6,4 C 79 % 1032,0 hPa 0,0 l/m 9,4 km/h (2 Bft) S-SW 202 -9,4 C -10,8 C
12.02.2012 10:47 -6,4 C 79 % 1031,8 hPa 0,0 l/m 9,0 km/h (2 Bft) S-SW 202 -9,4 C -10,6 C
12.02.2012 10:52 -6,2 C 79 % 1032,0 hPa 0,0 l/m 6,5 km/h (2 Bft) S-SW 202 -9,2 C -9,4 C
12.02.2012 10:57 -6,1 C 79 % 1031,8 hPa 0,0 l/m 6,1 km/h (2 Bft) S-SW 202 -9,1 C -9,1 C
12.02.2012 11:02 -5,9 C 79 % 1031,9 hPa 0,0 l/m 3,6 km/h (1 Bft) W-SW 247 -8,9 C -5,9 C
12.02.2012 11:07 -5,7 C 78 % 1031,7 hPa 0,0 l/m 4,7 km/h (1 Bft) SW 225 -8,9 C -7,9 C
12.02.2012 11:12 -5,5 C 78 % 1031,6 hPa 0,0 l/m 8,6 km/h (2 Bft) SW 225 -8,7 C -9,4 C
12.02.2012 11:17 -5,3 C 78 % 1031,6 hPa 0,0 l/m 5,0 km/h (1 Bft) W-SW 247 -8,5 C -7,6 C
12.02.2012 11:22 -5,1 C 78 % 1031,5 hPa 0,0 l/m 4,0 km/h (1 Bft) W-SW 247 -8,3 C -5,1 C
12.02.2012 11:27 -4,8 C 78 % 1031,5 hPa 0,0 l/m 4,0 km/h (1 Bft) W-SW 247 -8,0 C -4,8 C
12.02.2012 11:32 -4,6 C 78 % 1031,4 hPa 0,0 l/m 3,6 km/h (1 Bft) W 270 -7,8 C -4,6 C
12.02.2012 11:37 -4,4 C 77 % 1031,3 hPa 0,0 l/m 3,2 km/h (1 Bft) W-SW 247 -7,8 C -4,4 C
12.02.2012 11:42 -4,2 C 77 % 1031,4 hPa 0,0 l/m 6,5 km/h (2 Bft) W-SW 247 -7,6 C -7,1 C
12.02.2012 11:47 -4,2 C 76 % 1031,2 hPa 0,0 l/m 7,2 km/h (2 Bft) SW 225 -7,8 C -7,4 C
12.02.2012 11:52 -4,1 C 77 % 1031,3 hPa 0,0 l/m 12,2 km/h (2 Bft) SW 225 -7,5 C -8,8 C
12.02.2012 11:57 -3,9 C 76 % 1031,0 hPa 0,0 l/m 6,5 km/h (2 Bft) W-SW 247 -7,5 C -6,7 C
12.02.2012 12:02 -3,7 C 76 % 1030,9 hPa 0,0 l/m 5,0 km/h (1 Bft) W-SW 247 -7,3 C -5,8 C
12.02.2012 12:07 -3,4 C 76 % 1030,8 hPa 0,0 l/m 5,0 km/h (1 Bft) W-SW 247 -7,0 C -5,4 C
12.02.2012 12:12 -3,2 C 76 % 1030,8 hPa 0,0 l/m 10,1 km/h (2 Bft) W-SW 247 -6,8 C -7,2 C
12.02.2012 12:17 -3,1 C 76 % 1030,7 hPa 0,0 l/m 6,8 km/h (2 Bft) SW 225 -6,7 C -5,9 C
12.02.2012 12:22 -3,0 C 75 % 1030,7 hPa 0,0 l/m 5,8 km/h (2 Bft) W-SW 247 -6,8 C -5,4 C
12.02.2012 12:27 -2,8 C 75 % 1030,5 hPa 0,0 l/m 7,9 km/h (2 Bft) SW 225 -6,6 C -6,0 C
12.02.2012 12:32 -2,7 C 75 % 1030,5 hPa 0,0 l/m 9,7 km/h (2 Bft) W-SW 247 -6,5 C -6,5 C
12.02.2012 12:37 -2,7 C 74 % 1030,5 hPa 0,0 l/m 5,0 km/h (1 Bft) W 270 -6,7 C -4,7 C
12.02.2012 12:42 -2,7 C 74 % 1030,3 hPa 0,0 l/m 7,2 km/h (2 Bft) W-SW 247 -6,7 C -5,6 C
12.02.2012 12:47 -2,7 C 74 % 1030,3 hPa 0,0 l/m 10,1 km/h (2 Bft) S 180 -6,7 C -6,6 C
12.02.2012 12:52 -2,6 C 74 % 1030,3 hPa 0,0 l/m 12,2 km/h (2 Bft) W-SW 247 -6,6 C -7,0 C
12.02.2012 12:57 -2,4 C 74 % 1030,2 hPa 0,0 l/m 7,6 km/h (2 Bft) W-NW 292 -6,4 C -5,4 C
12.02.2012 13:02 -2,2 C 74 % 1030,2 hPa 0,0 l/m 4,3 km/h (1 Bft) W 270 -6,2 C -2,2 C
12.02.2012 13:07 -2,2 C 73 % 1030,3 hPa 0,0 l/m 9,0 km/h (2 Bft) W 270 -6,4 C -5,6 C
12.02.2012 13:12 -2,2 C 73 % 1030,2 hPa 0,0 l/m 7,2 km/h (2 Bft) W 270 -6,4 C -5,0 C
12.02.2012 13:17 -2,4 C 73 % 1030,2 hPa 0,0 l/m 10,4 km/h (2 Bft) W-SW 247 -6,6 C -6,3 C
12.02.2012 13:22 -2,4 C 73 % 1030,2 hPa 0,0 l/m 9,0 km/h (2 Bft) W-SW 247 -6,6 C -5,9 C
12.02.2012 13:27 -2,4 C 73 % 1030,2 hPa 0,0 l/m 7,6 km/h (2 Bft) W-SW 247 -6,6 C -5,4 C
12.02.2012 13:32 -2,2 C 73 % 1030,2 hPa 0,0 l/m 11,9 km/h (2 Bft) W-SW 247 -6,4 C -6,4 C
12.02.2012 13:37 -2,2 C 73 % 1030,1 hPa 0,0 l/m 6,1 km/h (2 Bft) SW 225 -6,4 C -4,6 C
12.02.2012 13:42 -2,1 C 73 % 1030,2 hPa 0,0 l/m 5,8 km/h (2 Bft) W-SW 247 -6,3 C -4,4 C
12.02.2012 13:47 -2,1 C 73 % 1030,2 hPa 0,0 l/m 6,5 km/h (2 Bft) W-SW 247 -6,3 C -4,6 C
12.02.2012 13:52 -1,9 C 74 % 1030,1 hPa 0,0 l/m 5,0 km/h (1 Bft) W-SW 247 -5,9 C -3,7 C
12.02.2012 13:57 -1,9 C 74 % 1030,0 hPa 0,0 l/m 4,7 km/h (1 Bft) W-SW 247 -5,9 C -3,6 C
12.02.2012 14:02 -1,8 C 74 % 1029,9 hPa 0,0 l/m 3,2 km/h (1 Bft) SW 225 -5,8 C -1,8 C
12.02.2012 14:07 -1,7 C 73 % 1029,8 hPa 0,0 l/m 4,0 km/h (1 Bft) SW 225 -5,9 C -1,7 C
12.02.2012 14:12 -1,6 C 73 % 1029,9 hPa 0,0 l/m 8,6 km/h (2 Bft) W-SW 247 -5,8 C -4,8 C
12.02.2012 14:17 -1,6 C 74 % 1029,6 hPa 0,0 l/m 6,8 km/h (2 Bft) W-SW 247 -5,6 C -4,2 C
12.02.2012 14:22 -1,6 C 73 % 1029,5 hPa 0,0 l/m 10,8 km/h (2 Bft) S-SW 202 -5,8 C -5,4 C
12.02.2012 14:27 -1,6 C 73 % 1029,4 hPa 0,0 l/m 8,3 km/h (2 Bft) W-SW 247 -5,8 C -4,7 C
12.02.2012 14:32 -1,6 C 73 % 1029,3 hPa 0,0 l/m 9,4 km/h (2 Bft) W-SW 247 -5,8 C -5,1 C
12.02.2012 14:37 -1,6 C 73 % 1029,1 hPa 0,0 l/m 4,0 km/h (1 Bft) SW 225 -5,8 C -1,6 C
12.02.2012 14:42 -1,6 C 73 % 1029,2 hPa 0,0 l/m 11,5 km/h (2 Bft) W-SW 247 -5,8 C -5,6 C
12.02.2012 14:47 -1,5 C 73 % 1029,2 hPa 0,0 l/m 14,8 km/h (3 Bft) W 270 -5,7 C -6,2 C
12.02.2012 14:52 -1,6 C 73 % 1029,0 hPa 0,0 l/m 10,4 km/h (2 Bft) W 270 -5,8 C -5,3 C
12.02.2012 14:57 -1,6 C 73 % 1029,0 hPa 0,0 l/m 10,1 km/h (2 Bft) W-SW 247 -5,8 C -5,3 C
12.02.2012 15:02 -1,6 C 73 % 1028,9 hPa 0,0 l/m 7,2 km/h (2 Bft) SW 225 -5,8 C -4,3 C
12.02.2012 15:07 -1,6 C 73 % 1028,7 hPa 0,0 l/m 19,1 km/h (3 Bft) W 270 -5,8 C -7,1 C
12.02.2012 15:12 -1,7 C 73 % 1028,7 hPa 0,0 l/m 10,8 km/h (2 Bft) S 180 -5,9 C -5,6 C
12.02.2012 15:17 -1,7 C 73 % 1028,7 hPa 0,0 l/m 6,8 km/h (2 Bft) S-SW 202 -5,9 C -4,3 C
12.02.2012 15:22 -1,8 C 73 % 1028,6 hPa 0,0 l/m 8,6 km/h (2 Bft) W-SW 247 -6,0 C -5,0 C
12.02.2012 15:27 -1,8 C 73 % 1028,5 hPa 0,0 l/m 11,2 km/h (2 Bft) W 270 -6,0 C -5,8 C
12.02.2012 15:32 -1,9 C 74 % 1028,5 hPa 0,0 l/m 14,8 km/h (3 Bft) W-SW 247 -5,9 C -6,7 C
12.02.2012 15:37 -1,9 C 74 % 1028,4 hPa 0,0 l/m 4,0 km/h (1 Bft) W-SW 247 -5,9 C -1,9 C
12.02.2012 15:42 -1,9 C 74 % 1028,4 hPa 0,0 l/m 9,7 km/h (2 Bft) SW 225 -5,9 C -5,5 C
12.02.2012 15:47 -2,1 C 74 % 1028,3 hPa 0,0 l/m 16,9 km/h (3 Bft) SW 225 -6,1 C -7,4 C
12.02.2012 15:52 -2,1 C 74 % 1028,4 hPa 0,0 l/m 11,2 km/h (2 Bft) W-NW 292 -6,1 C -6,1 C
12.02.2012 15:57 -2,1 C 74 % 1028,3 hPa 0,0 l/m 7,2 km/h (2 Bft) W-SW 247 -6,1 C -4,9 C
12.02.2012 16:02 -2,1 C 74 % 1028,2 hPa 0,0 l/m 6,5 km/h (2 Bft) S 180 -6,1 C -4,6 C
12.02.2012 16:07 -2,1 C 74 % 1028,0 hPa 0,0 l/m 6,1 km/h (2 Bft) SW 225 -6,1 C -4,5 C
12.02.2012 16:12 -2,1 C 74 % 1027,9 hPa 0,0 l/m 4,3 km/h (1 Bft) SW 225 -6,1 C -2,1 C
12.02.2012 16:17 -2,1 C 74 % 1027,9 hPa 0,0 l/m 8,3 km/h (2 Bft) W-SW 247 -6,1 C -5,3 C
12.02.2012 16:22 -2,1 C 74 % 1027,9 hPa 0,0 l/m 15,5 km/h (3 Bft) W-SW 247 -6,1 C -7,1 C
12.02.2012 16:27 -2,2 C 74 % 1027,9 hPa 0,0 l/m 10,1 km/h (2 Bft) W-SW 247 -6,2 C -6,0 C
12.02.2012 16:32 -2,2 C 74 % 1027,9 hPa 0,0 l/m 8,6 km/h (2 Bft) W 270 -6,2 C -5,5 C
12.02.2012 16:37 -2,2 C 74 % 1027,9 hPa 0,0 l/m 13,0 km/h (3 Bft) W-SW 247 -6,2 C -6,7 C
12.02.2012 16:42 -2,2 C 74 % 1028,1 hPa 0,0 l/m 11,5 km/h (2 Bft) NW 315 -6,2 C -6,3 C
12.02.2012 16:47 -2,2 C 74 % 1028,1 hPa 0,0 l/m 8,6 km/h (2 Bft) W-SW 247 -6,2 C -5,5 C
12.02.2012 16:52 -2,2 C 74 % 1028,0 hPa 0,0 l/m 12,6 km/h (3 Bft) W-NW 292 -6,2 C -6,6 C
12.02.2012 16:57 -2,2 C 74 % 1027,9 hPa 0,0 l/m 15,1 km/h (3 Bft) W-SW 247 -6,2 C -7,1 C
12.02.2012 17:02 -2,2 C 74 % 1027,7 hPa 0,0 l/m 6,8 km/h (2 Bft) W-SW 247 -6,2 C -4,9 C
12.02.2012 17:07 -2,4 C 75 % 1027,6 hPa 0,0 l/m 20,5 km/h (4 Bft) W-SW 247 -6,2 C -8,3 C
12.02.2012 17:12 -2,4 C 75 % 1027,4 hPa 0,0 l/m 16,6 km/h (3 Bft) S-SW 202 -6,2 C -7,7 C
12.02.2012 17:17 -2,4 C 75 % 1027,3 hPa 0,0 l/m 11,9 km/h (2 Bft) W-SW 247 -6,2 C -6,7 C
12.02.2012 17:22 -2,4 C 75 % 1027,5 hPa 0,0 l/m 11,9 km/h (2 Bft) SW 225 -6,2 C -6,7 C
12.02.2012 17:27 -2,4 C 75 % 1027,3 hPa 0,0 l/m 7,9 km/h (2 Bft) W-SW 247 -6,2 C -5,5 C
12.02.2012 17:32 -2,4 C 75 % 1027,3 hPa 0,0 l/m 8,3 km/h (2 Bft) W 270 -6,2 C -5,7 C
12.02.2012 17:37 -2,4 C 75 % 1027,2 hPa 0,0 l/m 16,6 km/h (3 Bft) W-SW 247 -6,2 C -7,7 C
12.02.2012 17:42 -2,4 C 75 % 1027,1 hPa 0,0 l/m 11,2 km/h (2 Bft) W-SW 247 -6,2 C -6,5 C
12.02.2012 17:47 -2,4 C 75 % 1027,2 hPa 0,0 l/m 6,8 km/h (2 Bft) W 270 -6,2 C -5,1 C
12.02.2012 17:52 -2,5 C 75 % 1026,9 hPa 0,0 l/m 8,6 km/h (2 Bft) SO 135 -6,3 C -5,9 C
12.02.2012 17:57 -2,5 C 75 % 1026,9 hPa 0,0 l/m 13,7 km/h (3 Bft) W-SW 247 -6,3 C -7,2 C
12.02.2012 18:02 -2,5 C 76 % 1026,9 hPa 0,0 l/m 8,3 km/h (2 Bft) W-SW 247 -6,1 C -5,8 C
12.02.2012 18:07 -2,5 C 76 % 1026,8 hPa 0,0 l/m 14,0 km/h (3 Bft) S-SW 202 -6,1 C -7,3 C
12.02.2012 18:12 -2,5 C 76 % 1026,6 hPa 0,0 l/m 9,7 km/h (2 Bft) W-SW 247 -6,1 C -6,2 C
12.02.2012 18:17 -2,5 C 76 % 1026,6 hPa 0,0 l/m 11,5 km/h (2 Bft) SW 225 -6,1 C -6,7 C
12.02.2012 18:22 -2,5 C 76 % 1026,7 hPa 0,0 l/m 8,6 km/h (2 Bft) SW 225 -6,1 C -5,9 C
12.02.2012 18:27 -2,5 C 76 % 1026,6 hPa 0,0 l/m 16,6 km/h (3 Bft) W-SW 247 -6,1 C -7,8 C
12.02.2012 18:32 -2,6 C 76 % 1026,8 hPa 0,0 l/m 17,3 km/h (3 Bft) W-SW 247 -6,2 C -8,1 C
12.02.2012 18:37 -2,5 C 76 % 1026,7 hPa 0,0 l/m 8,3 km/h (2 Bft) W-SW 247 -6,1 C -5,8 C
12.02.2012 18:42 -2,5 C 76 % 1026,7 hPa 0,0 l/m 4,0 km/h (1 Bft) W 270 -6,1 C -2,5 C
12.02.2012 18:47 -2,5 C 76 % 1026,9 hPa 0,0 l/m 4,7 km/h (1 Bft) W-NW 292 -6,1 C -4,3 C
12.02.2012 18:52 -2,5 C 76 % 1026,8 hPa 0,0 l/m 18,7 km/h (3 Bft) W-SW 247 -6,1 C -8,2 C
12.02.2012 18:57 -2,6 C 76 % 1026,7 hPa 0,0 l/m 4,0 km/h (1 Bft) W-SW 247 -6,2 C -2,6 C
12.02.2012 19:02 -2,6 C 77 % 1026,8 hPa 0,0 l/m 8,6 km/h (2 Bft) W-SW 247 -6,1 C -6,0 C
12.02.2012 19:07 -2,6 C 77 % 1026,7 hPa 0,0 l/m 3,6 km/h (1 Bft) W 270 -6,1 C -2,6 C
12.02.2012 19:12 -2,7 C 78 % 1026,6 hPa 0,0 l/m 9,4 km/h (2 Bft) W-SW 247 -6,0 C -6,4 C
12.02.2012 19:17 -2,7 C 79 % 1026,3 hPa 0,0 l/m 8,3 km/h (2 Bft) W 270 -5,8 C -6,0 C
12.02.2012 19:22 -2,7 C 79 % 1026,4 hPa 0,0 l/m 14,8 km/h (3 Bft) W-SW 247 -5,8 C -7,7 C
12.02.2012 19:27 -2,8 C 79 % 1026,3 hPa 0,0 l/m 5,0 km/h (1 Bft) W-SW 247 -5,9 C -4,8 C
12.02.2012 19:32 -2,7 C 79 % 1026,2 hPa 0,0 l/m 15,8 km/h (3 Bft) W-SW 247 -5,8 C -7,9 C
12.02.2012 19:37 -2,7 C 79 % 1026,1 hPa 0,0 l/m 9,4 km/h (2 Bft) W-SW 247 -5,8 C -6,4 C
12.02.2012 19:42 -2,7 C 79 % 1026,2 hPa 0,0 l/m 8,3 km/h (2 Bft) W-SW 247 -5,8 C -6,0 C
12.02.2012 19:47 -2,7 C 79 % 1026,1 hPa 0,0 l/m 7,9 km/h (2 Bft) W-SW 247 -5,8 C -5,9 C
12.02.2012 19:52 -2,7 C 79 % 1026,1 hPa 0,0 l/m 8,3 km/h (2 Bft) W-SW 247 -5,8 C -6,0 C
12.02.2012 19:57 -2,7 C 79 % 1026,0 hPa 0,0 l/m 7,2 km/h (2 Bft) W-NW 292 -5,8 C -5,6 C
12.02.2012 20:02 -2,7 C 79 % 1025,9 hPa 0,0 l/m 10,8 km/h (2 Bft) W-NW 292 -5,8 C -6,8 C
12.02.2012 20:07 -2,7 C 79 % 1025,8 hPa 0,0 l/m 7,9 km/h (2 Bft) W-SW 247 -5,8 C -5,9 C
12.02.2012 20:12 -2,7 C 79 % 1025,8 hPa 0,0 l/m 11,9 km/h (2 Bft) W-SW 247 -5,8 C -7,0 C
12.02.2012 20:17 -2,6 C 79 % 1025,9 hPa 0,0 l/m 10,1 km/h (2 Bft) W-SW 247 -5,7 C -6,4 C
12.02.2012 20:22 -2,6 C 79 % 1025,7 hPa 0,0 l/m 15,5 km/h (3 Bft) W-SW 247 -5,7 C -7,7 C
12.02.2012 20:27 -2,6 C 79 % 1025,6 hPa 0,0 l/m 13,7 km/h (3 Bft) W-SW 247 -5,7 C -7,3 C
12.02.2012 20:32 -2,6 C 79 % 1025,7 hPa 0,0 l/m 10,1 km/h (2 Bft) W-NW 292 -5,7 C -6,4 C
12.02.2012 20:37 -2,6 C 79 % 1025,6 hPa 0,0 l/m 7,9 km/h (2 Bft) W-NW 292 -5,7 C -5,8 C
12.02.2012 20:42 -2,6 C 79 % 1025,8 hPa 0,0 l/m 6,8 km/h (2 Bft) W-NW 292 -5,7 C -5,3 C
12.02.2012 20:47 -2,6 C 79 % 1025,7 hPa 0,0 l/m 3,6 km/h (1 Bft) W 270 -5,7 C -2,6 C
12.02.2012 20:52 -2,5 C 79 % 1025,6 hPa 0,0 l/m 5,0 km/h (1 Bft) W 270 -5,6 C -4,4 C
12.02.2012 20:57 -2,6 C 79 % 1025,7 hPa 0,0 l/m 8,3 km/h (2 Bft) W 270 -5,7 C -5,9 C
12.02.2012 21:02 -2,5 C 79 % 1025,6 hPa 0,0 l/m 16,6 km/h (3 Bft) W 270 -5,6 C -7,8 C
12.02.2012 21:07 -2,5 C 79 % 1025,5 hPa 0,0 l/m 3,6 km/h (1 Bft) W-NW 292 -5,6 C -2,5 C
12.02.2012 21:12 -2,5 C 79 % 1025,5 hPa 0,0 l/m 9,7 km/h (2 Bft) W-NW 292 -5,6 C -6,2 C
12.02.2012 21:17 -2,5 C 80 % 1025,5 hPa 0,0 l/m 15,8 km/h (3 Bft) W-NW 292 -5,5 C -7,7 C
12.02.2012 21:22 -2,5 C 80 % 1025,5 hPa 0,0 l/m 6,1 km/h (2 Bft) W-NW 292 -5,5 C -4,9 C
12.02.2012 21:27 -2,5 C 80 % 1025,5 hPa 0,0 l/m 13,0 km/h (3 Bft) W 270 -5,5 C -7,1 C
12.02.2012 21:32 -2,5 C 80 % 1025,4 hPa 0,0 l/m 15,5 km/h (3 Bft) W-NW 292 -5,5 C -7,6 C
12.02.2012 21:37 -2,4 C 80 % 1025,4 hPa 0,0 l/m 12,6 km/h (3 Bft) W 270 -5,4 C -6,9 C
12.02.2012 21:42 -2,4 C 80 % 1025,4 hPa 0,0 l/m 16,9 km/h (3 Bft) W-SW 247 -5,4 C -7,7 C
12.02.2012 21:47 -2,4 C 80 % 1025,5 hPa 0,0 l/m 7,2 km/h (2 Bft) W 270 -5,4 C -5,3 C
12.02.2012 21:52 -2,4 C 81 % 1025,4 hPa 0,0 l/m 7,2 km/h (2 Bft) W 270 -5,2 C -5,3 C
12.02.2012 21:57 -2,4 C 81 % 1025,3 hPa 0,0 l/m 9,0 km/h (2 Bft) NW 315 -5,2 C -5,9 C
12.02.2012 22:02 -2,4 C 81 % 1025,5 hPa 0,0 l/m 6,5 km/h (2 Bft) W 270 -5,2 C -5,0 C
12.02.2012 22:07 -2,4 C 81 % 1025,5 hPa 0,0 l/m 9,4 km/h (2 Bft) W-NW 292 -5,2 C -6,0 C
12.02.2012 22:12 -2,4 C 81 % 1025,4 hPa 0,0 l/m 12,2 km/h (2 Bft) W-NW 292 -5,2 C -6,8 C
12.02.2012 22:17 -2,3 C 81 % 1025,5 hPa 0,0 l/m 7,6 km/h (2 Bft) W-NW 292 -5,1 C -5,3 C
12.02.2012 22:22 -2,3 C 81 % 1025,3 hPa 0,0 l/m 10,8 km/h (2 Bft) W 270 -5,1 C -6,3 C
12.02.2012 22:27 -2,2 C 82 % 1025,4 hPa 0,0 l/m 8,6 km/h (2 Bft) W 270 -4,8 C -5,5 C
12.02.2012 22:32 -2,2 C 82 % 1025,2 hPa 0,0 l/m 9,7 km/h (2 Bft) W 270 -4,8 C -5,9 C
12.02.2012 22:37 -2,2 C 82 % 1025,1 hPa 0,0 l/m 9,0 km/h (2 Bft) W-NW 292 -4,8 C -5,6 C
12.02.2012 22:42 -2,2 C 82 % 1025,1 hPa 0,0 l/m 6,8 km/h (2 Bft) NW 315 -4,8 C -4,9 C
12.02.2012 22:47 -2,2 C 82 % 1025,2 hPa 0,0 l/m 7,2 km/h (2 Bft) W 270 -4,8 C -5,0 C
12.02.2012 22:52 -2,2 C 82 % 1025,1 hPa 0,0 l/m 8,6 km/h (2 Bft) W-NW 292 -4,8 C -5,5 C
12.02.2012 22:57 -2,2 C 83 % 1025,1 hPa 0,0 l/m 11,5 km/h (2 Bft) W-NW 292 -4,7 C -6,3 C
12.02.2012 23:02 -2,2 C 83 % 1025,0 hPa 0,0 l/m 10,8 km/h (2 Bft) W-NW 292 -4,7 C -6,2 C
12.02.2012 23:07 -2,1 C 83 % 1025,0 hPa 0,0 l/m 3,2 km/h (1 Bft) W-NW 292 -4,6 C -2,1 C
12.02.2012 23:12 -2,1 C 84 % 1025,1 hPa 0,0 l/m 5,8 km/h (2 Bft) W 270 -4,4 C -4,4 C
12.02.2012 23:17 -2,1 C 84 % 1025,1 hPa 0,0 l/m 4,7 km/h (1 Bft) W-NW 292 -4,4 C -3,8 C
12.02.2012 23:22 -2,1 C 84 % 1025,2 hPa 0,0 l/m 5,0 km/h (1 Bft) W-NW 292 -4,4 C -4,0 C
12.02.2012 23:27 -2,1 C 84 % 1025,1 hPa 0,0 l/m 5,8 km/h (2 Bft) W-NW 292 -4,4 C -4,4 C
12.02.2012 23:32 -2,1 C 84 % 1025,1 hPa 0,0 l/m 11,5 km/h (2 Bft) W 270 -4,4 C -6,2 C
12.02.2012 23:37 -2,0 C 85 % 1025,2 hPa 0,0 l/m 4,0 km/h (1 Bft) NW 315 -4,2 C -2,0 C
12.02.2012 23:42 -2,0 C 85 % 1025,3 hPa 0,0 l/m 4,3 km/h (1 Bft) W 270 -4,2 C -2,0 C
12.02.2012 23:47 -2,0 C 85 % 1025,4 hPa 0,0 l/m 8,6 km/h (2 Bft) W-NW 292 -4,2 C -5,3 C
12.02.2012 23:52 -1,9 C 85 % 1025,4 hPa 0,0 l/m 10,4 km/h (2 Bft) NW 315 -4,1 C -5,7 C
12.02.2012 23:57 -1,9 C 85 % 1025,4 hPa 0,0 l/m 4,3 km/h (1 Bft) W-NW 292 -4,1 C -1,9 C
_ Min-Zeit 01:22 13:07 23:02 - 00:02 - - 01:22 09:12
Minimum _ -11,8 C 73 % 1025,0 hPa - 0,0 km/h (0 Bft) - - -14,7 C -14,1 C
_ Max-Zeit 14:47 23:37 00:07 00:02 17:07 - - 23:52 14:37
Maximum _ -1,5 C 85 % 1036,2 hPa 0,0 l/m 20,5 km/h
W-SW (4 Bft)
- - -4,1 C -1,6 C
Durchschnitt _ -6,0 C 78 % 1030,5 hPa #0,0 l/m 5,8 km/h (2 Bft) W-SW - -9,2 C -8,0 C
(c) by David Heller